createdAt,value
2023-01-06T00:03:10.390Z,4.97
2023-01-06T00:08:12.092Z,6.83
2023-01-06T00:13:13.915Z,7.40
2023-01-06T00:18:15.827Z,3.07
2023-01-06T00:23:17.578Z,1.77
2023-01-06T00:28:19.457Z,4.37
2023-01-06T00:33:21.395Z,4.40
2023-01-06T00:38:23.102Z,1.80
2023-01-06T00:43:24.840Z,4.23
2023-01-06T00:48:26.561Z,2.90
2023-01-06T00:53:28.288Z,3.10
2023-01-06T00:58:33.526Z,3.07
2023-01-06T01:03:37.931Z,2.80
2023-01-06T01:08:39.671Z,3.13
2023-01-06T01:13:42.537Z,4.97
2023-01-06T01:18:44.671Z,5.60
2023-01-06T01:23:46.405Z,5.47
2023-01-06T01:28:48.285Z,1.80
2023-01-06T01:33:50.548Z,3.77
2023-01-06T01:38:52.358Z,3.70
2023-01-06T01:44:41.839Z,3.13
2023-01-06T01:49:48.146Z,1.73
2023-01-06T01:54:52.041Z,3.67
2023-01-06T01:59:54.342Z,4.03
2023-01-06T02:04:56.872Z,3.60
2023-01-06T02:10:21.461Z,2.73
2023-01-06T02:15:34.116Z,2.87
2023-01-06T02:21:28.266Z,2.30
2023-01-06T02:27:00.226Z,4.60
2023-01-06T02:33:00.350Z,4.20
2023-01-06T02:39:07.152Z,3.37
2023-01-06T02:44:17.686Z,4.90
2023-01-06T02:49:38.590Z,6.70
2023-01-06T02:54:45.993Z,4.87
2023-01-06T03:00:34.878Z,0.87
2023-01-06T03:05:38.768Z,1.70
2023-01-06T03:10:45.595Z,1.20
2023-01-06T03:15:47.635Z,1.47
2023-01-06T03:20:53.179Z,2.00
2023-01-06T03:25:55.044Z,2.60
2023-01-06T03:31:38.185Z,2.87
2023-01-06T03:37:01.027Z,0.90
2023-01-06T03:42:39.102Z,2.03
2023-01-06T03:48:25.219Z,4.90
2023-01-06T03:53:58.862Z,2.30
2023-01-06T03:59:10.007Z,2.67
2023-01-06T04:04:12.036Z,2.47
2023-01-06T04:09:13.791Z,2.33
2023-01-06T04:14:15.544Z,1.80
2023-01-06T04:19:17.322Z,4.63
2023-01-06T04:24:19.071Z,6.20
2023-01-06T04:29:20.813Z,4.50
2023-01-06T04:34:22.517Z,2.50
2023-01-06T04:39:24.259Z,3.97
2023-01-06T04:44:25.969Z,3.60
2023-01-06T04:49:27.757Z,1.70
2023-01-06T04:54:29.598Z,3.90
2023-01-06T04:59:31.387Z,1.40
2023-01-06T05:04:43.397Z,7.33
2023-01-06T05:09:49.071Z,6.63
2023-01-06T05:14:51.254Z,1.50
2023-01-06T05:19:53.520Z,8.00
2023-01-06T05:24:55.463Z,4.80
2023-01-06T05:29:57.194Z,2.20
2023-01-06T05:34:58.929Z,4.40
2023-01-06T05:40:00.665Z,2.43
2023-01-06T05:45:02.501Z,2.43
2023-01-06T05:50:05.537Z,7.07
2023-01-06T05:55:08.816Z,3.33
2023-01-06T06:00:12.051Z,1.80
2023-01-06T06:05:13.810Z,5.50
2023-01-06T06:10:15.585Z,2.53
2023-01-06T06:15:17.339Z,5.00
2023-01-06T06:20:19.056Z,3.00
2023-01-06T06:25:20.794Z,3.20
2023-01-06T06:30:22.533Z,3.00
2023-01-06T06:35:24.266Z,7.60
2023-01-06T06:40:26.779Z,4.70
2023-01-06T06:45:28.530Z,7.10
2023-01-06T06:50:30.231Z,5.60
2023-01-06T06:55:33.796Z,4.10
2023-01-06T07:00:35.575Z,3.30
2023-01-06T07:05:37.473Z,8.00
2023-01-06T07:10:39.268Z,8.20
2023-01-06T07:15:41.123Z,7.27
2023-01-06T07:20:49.695Z,7.47
2023-01-06T07:25:54.403Z,6.13
2023-01-06T07:30:56.575Z,10.87
2023-01-06T07:35:58.505Z,9.50
2023-01-06T07:41:02.177Z,6.37
2023-01-06T07:46:04.133Z,8.90
2023-01-06T07:51:06.992Z,8.33
2023-01-06T07:56:08.839Z,8.90
2023-01-06T08:01:11.597Z,11.97
2023-01-06T08:06:14.129Z,26.10
2023-01-06T08:11:15.993Z,11.47
2023-01-06T08:16:17.858Z,14.30
2023-01-06T08:21:19.674Z,10.10
2023-01-06T08:26:21.706Z,15.73
2023-01-06T08:31:23.847Z,14.40
2023-01-06T08:36:26.149Z,16.17
2023-01-06T08:41:27.879Z,20.00
2023-01-06T08:46:29.824Z,15.90
2023-01-06T08:51:31.908Z,12.53
2023-01-06T08:56:35.518Z,16.53
2023-01-06T09:01:37.502Z,18.80
2023-01-06T09:06:43.285Z,13.83
2023-01-06T09:11:46.662Z,13.93
2023-01-06T09:16:48.744Z,11.80
2023-01-06T09:21:50.570Z,16.83
2023-01-06T09:26:52.276Z,16.70
2023-01-06T09:31:54.250Z,20.53
2023-01-06T09:36:56.120Z,11.27
2023-01-06T09:42:46.832Z,21.53
2023-01-06T09:48:04.364Z,16.23
2023-01-06T09:53:15.989Z,19.20
2023-01-06T09:58:41.441Z,16.70
2023-01-06T10:03:48.389Z,16.13
2023-01-06T10:09:30.048Z,16.80
2023-01-06T10:15:31.037Z,16.20
2023-01-06T10:21:02.651Z,15.10
2023-01-06T10:26:21.948Z,23.87
2023-01-06T10:31:33.060Z,20.03
2023-01-06T10:36:43.291Z,15.33
2023-01-06T10:42:55.571Z,19.37
2023-01-06T10:47:59.124Z,14.17
2023-01-06T10:53:01.277Z,15.43
2023-01-06T10:58:52.308Z,14.10
2023-01-06T11:04:28.001Z,11.17
2023-01-06T11:09:45.352Z,9.50
2023-01-06T11:15:06.417Z,12.70
2023-01-06T11:20:14.033Z,13.70
2023-01-06T11:25:32.306Z,12.07
2023-01-06T11:31:00.179Z,13.27
2023-01-06T11:36:13.667Z,8.40
2023-01-06T11:41:40.947Z,16.60
2023-01-06T11:46:51.590Z,11.60
2023-01-06T11:52:19.813Z,8.70
2023-01-06T11:57:48.423Z,12.33
2023-01-06T12:03:19.638Z,17.50
2023-01-06T12:08:40.875Z,7.80
2023-01-06T12:13:44.887Z,9.33
2023-01-06T12:18:53.652Z,6.90
2023-01-06T12:24:01.467Z,10.87
2023-01-06T12:29:07.458Z,7.30
2023-01-06T12:34:40.181Z,5.63
2023-01-06T12:40:05.694Z,7.43
2023-01-06T12:45:46.588Z,8.67
2023-01-06T12:51:14.569Z,5.37
2023-01-06T12:57:05.925Z,7.03
2023-01-06T13:02:53.862Z,3.80
2023-01-06T13:09:01.647Z,6.07
2023-01-06T13:14:38.621Z,3.40
2023-01-06T13:19:57.720Z,3.53
2023-01-06T13:26:01.819Z,2.03
2023-01-06T13:31:40.696Z,2.80
2023-01-06T13:37:16.403Z,3.17
2023-01-06T13:42:50.857Z,1.67
2023-01-06T13:47:53.449Z,1.27
2023-01-06T13:52:56.195Z,2.77
2023-01-06T13:58:24.292Z,1.90
2023-01-06T14:03:26.100Z,1.53
2023-01-06T14:08:36.631Z,0.57
2023-01-06T14:13:43.260Z,1.00
2023-01-06T14:18:51.514Z,1.03
2023-01-06T14:24:35.995Z,1.37
2023-01-06T14:29:43.443Z,0.90
2023-01-06T14:34:58.590Z,1.50
2023-01-06T14:40:02.049Z,2.60
2023-01-06T14:45:28.064Z,5.40
2023-01-06T14:50:47.362Z,2.50
2023-01-06T14:55:51.131Z,1.27
2023-01-06T15:00:53.635Z,1.13
2023-01-06T15:06:24.491Z,0.90
2023-01-06T15:11:31.436Z,1.10
2023-01-06T15:16:41.156Z,1.73
2023-01-06T15:21:47.473Z,3.83
2023-01-06T15:26:53.717Z,7.40
2023-01-06T15:31:56.994Z,4.50
2023-01-06T15:37:02.982Z,1.77
2023-01-06T15:42:12.209Z,2.40
2023-01-06T15:47:13.836Z,2.13
2023-01-06T15:52:38.661Z,1.50
2023-01-06T15:57:40.734Z,2.20
2023-01-06T16:02:46.834Z,2.07
2023-01-06T16:07:48.629Z,3.57
2023-01-06T16:13:05.303Z,2.37
2023-01-06T16:18:09.700Z,2.37
2023-01-06T16:23:33.958Z,2.70
2023-01-06T16:28:41.116Z,6.67
2023-01-06T16:33:45.880Z,4.20
2023-01-06T16:38:47.848Z,2.47
2023-01-06T16:43:49.676Z,2.93
2023-01-06T16:48:55.923Z,2.33
2023-01-06T16:53:58.118Z,2.50
2023-01-06T16:59:00.846Z,2.27
2023-01-06T17:04:03.472Z,3.00
2023-01-06T17:09:25.898Z,2.97
2023-01-06T17:14:27.902Z,4.13
2023-01-06T17:19:34.668Z,4.73
2023-01-06T17:24:36.543Z,3.27
2023-01-06T17:29:38.368Z,2.63
2023-01-06T17:34:40.402Z,3.60
2023-01-06T17:39:45.909Z,4.70
2023-01-06T17:44:54.072Z,4.20
2023-01-06T17:50:11.508Z,4.53
2023-01-06T17:55:43.735Z,3.10
2023-01-06T18:00:46.719Z,4.93
2023-01-06T18:06:08.898Z,5.60
2023-01-06T18:11:10.479Z,7.20
2023-01-06T18:16:35.165Z,5.00
2023-01-06T18:21:39.179Z,4.40
2023-01-06T18:27:08.691Z,3.53
2023-01-06T18:32:24.037Z,5.10
2023-01-06T18:37:34.032Z,4.30
2023-01-06T18:42:44.342Z,8.43
2023-01-06T18:47:53.752Z,5.07
2023-01-06T18:53:14.945Z,7.23
2023-01-06T18:58:52.864Z,6.17
2023-01-06T19:04:28.989Z,4.30
2023-01-06T19:09:49.868Z,6.10
2023-01-06T19:14:53.914Z,4.60
2023-01-06T19:19:59.931Z,4.10
2023-01-06T19:25:32.171Z,5.73
2023-01-06T19:30:42.722Z,5.73
2023-01-06T19:35:45.248Z,7.20
2023-01-06T19:40:47.086Z,5.33
2023-01-06T19:45:49.187Z,4.67
2023-01-06T19:51:33.657Z,4.93
2023-01-06T19:56:40.961Z,4.20
2023-01-06T20:01:47.578Z,7.40
2023-01-06T20:06:50.237Z,5.70
2023-01-06T20:11:52.449Z,5.03
2023-01-06T20:16:54.351Z,5.63
2023-01-06T20:21:56.834Z,5.07
2023-01-06T20:26:58.585Z,7.50
2023-01-06T20:32:00.385Z,5.37
2023-01-06T20:37:02.384Z,5.57
2023-01-06T20:42:05.482Z,5.57
2023-01-06T20:47:07.363Z,4.80
2023-01-06T20:52:09.382Z,5.83
2023-01-06T20:57:11.370Z,5.80
2023-01-06T21:02:13.198Z,5.83
2023-01-06T21:07:15.048Z,6.43
2023-01-06T21:12:16.965Z,7.17
2023-01-06T21:17:21.730Z,6.37
2023-01-06T21:22:23.889Z,6.13
2023-01-06T21:27:25.737Z,6.50
2023-01-06T21:32:27.655Z,6.70
2023-01-06T21:37:34.759Z,6.93
2023-01-06T21:42:55.863Z,7.30
2023-01-06T21:47:57.551Z,10.93
2023-01-06T21:53:01.771Z,7.60
2023-01-06T21:58:04.029Z,8.13
2023-01-06T22:03:06.833Z,9.63
2023-01-06T22:08:09.104Z,8.70
2023-01-06T22:13:16.791Z,8.53
2023-01-06T22:18:19.434Z,8.43
2023-01-06T22:23:22.312Z,13.10
2023-01-06T22:28:24.075Z,9.97
2023-01-06T22:33:25.863Z,9.80
2023-01-06T22:38:27.686Z,10.20
2023-01-06T22:43:29.388Z,9.30
2023-01-06T22:48:31.175Z,10.93
2023-01-06T22:53:34.071Z,8.67
2023-01-06T22:58:39.928Z,10.40
2023-01-06T23:03:41.839Z,9.77
2023-01-06T23:08:59.052Z,8.23
2023-01-06T23:14:01.692Z,8.43
2023-01-06T23:19:03.892Z,7.63
2023-01-06T23:24:11.222Z,9.47
2023-01-06T23:29:14.407Z,10.30
2023-01-06T23:34:23.890Z,11.20
2023-01-06T23:39:28.192Z,18.10
2023-01-06T23:44:31.669Z,9.83
2023-01-06T23:49:35.229Z,8.70
2023-01-06T23:54:42.781Z,8.43
2023-01-06T23:59:49.411Z,11.63
